Time;durP1;ratioP1;P1;durP2;ratioP2;P2;SDS_P1;SDS_P2;PMS_P1;PMS_P2;Temp;Humidity;BMP_temperature;BMP_pressure;BME280_temperature;BME280_humidity;BME280_pressure;Samples;Min_cycle;Max_cycle;Signal;HPM_P1;HPM_P2
2022/11/03 00:01:56;;;;;;;12.80;1.35;;;10.70;99.90;;;;;;5118524;27;20130;-70
2022/11/03 00:04:22;;;;;;;16.90;1.55;;;10.70;99.90;;;;;;5135590;27;20109;-72
2022/11/03 00:06:50;;;;;;;12.02;1.10;;;10.70;99.90;;;;;;5118441;27;20051;-73
2022/11/03 00:09:18;;;;;;;9.30;0.98;;;10.70;99.90;;;;;;5118547;27;20074;-71
2022/11/03 00:11:45;;;;;;;11.85;1.60;;;10.70;99.90;;;;;;5118231;27;20043;-72
2022/11/03 00:14:11;;;;;;;10.25;1.02;;;10.70;99.90;;;;;;5118053;27;20043;-72
2022/11/03 00:16:38;;;;;;;9.45;1.20;;;10.70;99.90;;;;;;5117982;27;20047;-72
2022/11/03 00:19:05;;;;;;;13.13;1.30;;;10.70;99.90;;;;;;5136360;27;20039;-72
2022/11/03 00:21:31;;;;;;;;;;;10.70;99.90;;;;;;5136472;27;20080;-71
2022/11/03 00:23:57;;;;;;;12.40;1.77;;;10.70;99.90;;;;;;5118002;27;19919;-72
2022/11/03 00:26:24;;;;;;;14.75;1.42;;;10.70;99.90;;;;;;5136383;27;20039;-72
2022/11/03 00:28:52;;;;;;;13.07;1.13;;;10.60;99.90;;;;;;5117829;27;20050;-71
2022/11/03 00:31:21;;;;;;;11.23;0.98;;;10.60;99.90;;;;;;5101784;27;20059;-73
2022/11/03 00:33:47;;;;;;;15.18;1.42;;;10.60;99.90;;;;;;5135944;27;20047;-71
2022/11/03 00:36:20;;;;;;;14.07;1.45;;;10.60;99.90;;;;;;5136625;27;20039;-72
2022/11/03 00:38:46;;;;;;;10.85;1.13;;;10.50;99.90;;;;;;5135862;27;20087;-70
2022/11/03 00:41:12;;;;;;;14.17;1.10;;;10.50;99.90;;;;;;5117887;27;20385;-70
2022/11/03 00:43:38;;;;;;;16.75;1.67;;;10.40;99.90;;;;;;5135750;27;20055;-72
2022/11/03 00:46:07;;;;;;;12.05;1.30;;;10.40;99.90;;;;;;5136563;27;20103;-71
2022/11/03 00:48:36;;;;;;;14.38;1.77;;;10.40;99.90;;;;;;5117602;27;20043;-72
2022/11/03 00:51:12;;;;;;;9.88;1.08;;;10.40;99.90;;;;;;5135687;27;20042;-72
2022/11/03 00:53:43;;;;;;;16.42;1.63;;;10.30;99.90;;;;;;5135444;27;20098;-72
2022/11/03 00:56:30;;;;;;;11.55;1.05;;;10.40;99.90;;;;;;5135664;27;20398;-70
2022/11/03 00:59:00;;;;;;;10.82;1.30;;;10.30;99.90;;;;;;5135271;27;20043;-73
2022/11/03 01:01:31;;;;;;;14.95;1.15;;;10.30;99.90;;;;;;5116956;27;20650;-72
2022/11/03 01:06:51;;;;;;;12.15;1.48;;;10.40;99.90;;;;;;5135830;27;20050;-72
2022/11/03 01:09:23;;;;;;;12.32;1.73;;;10.30;99.90;;;;;;5135335;27;20046;-71
2022/11/03 01:11:56;;;;;;;11.63;1.23;;;10.30;99.90;;;;;;5136162;27;20062;-71
2022/11/03 01:14:22;;;;;;;13.55;1.42;;;10.30;99.90;;;;;;5100742;27;20391;-74
2022/11/03 01:16:48;;;;;;;9.23;1.00;;;10.30;99.90;;;;;;5136153;27;20069;-71
2022/11/03 01:19:13;;;;;;;9.50;1.40;;;10.20;99.90;;;;;;5135090;27;20463;-72
2022/11/03 01:21:39;;;;;;;12.00;1.50;;;10.20;99.90;;;;;;5135172;27;20054;-71
2022/11/03 01:24:05;;;;;;;15.13;1.52;;;10.20;99.90;;;;;;5135093;27;20130;-71
2022/11/03 01:26:31;;;;;;;21.83;1.67;;;10.20;99.90;;;;;;5117511;27;20117;-70
2022/11/03 01:28:59;;;;;;;14.88;1.50;;;10.20;99.90;;;;;;5134893;27;20039;-72
2022/11/03 01:31:26;;;;;;;10.82;1.58;;;10.10;99.90;;;;;;5135161;27;20149;-74
2022/11/03 01:33:53;;;;;;;11.80;1.45;;;10.10;99.90;;;;;;5134833;27;20146;-71
2022/11/03 01:36:19;;;;;;;9.48;1.17;;;10.10;99.90;;;;;;5117140;27;20059;-72
2022/11/03 01:38:46;;;;;;;13.20;1.45;;;10.10;99.90;;;;;;5135241;27;20122;-71
2022/11/03 01:41:20;;;;;;;11.93;1.55;;;10.20;99.90;;;;;;5134987;27;20043;-71
2022/11/03 01:43:51;;;;;;;18.63;1.75;;;10.00;99.90;;;;;;5134878;27;20051;-71
2022/11/03 01:46:23;;;;;;;12.68;1.30;;;10.10;99.90;;;;;;5116815;27;20054;-71
2022/11/03 01:49:01;;;;;;;11.15;1.20;;;10.10;99.90;;;;;;5134413;27;20134;-71
2022/11/03 01:51:29;;;;;;;13.65;1.23;;;10.10;99.90;;;;;;5116408;27;20525;-71
2022/11/03 01:53:57;;;;;;;13.95;1.83;;;10.10;99.90;;;;;;5134422;27;20055;-70
2022/11/03 01:56:24;;;;;;;16.27;1.90;;;10.10;99.90;;;;;;5116792;27;20079;-71
2022/11/03 01:58:53;;;;;;;12.90;1.60;;;10.10;99.90;;;;;;5116411;27;20055;-70
2022/11/03 02:01:20;;;;;;;15.27;1.42;;;10.10;99.90;;;;;;5115842;27;20455;-71
2022/11/03 02:03:54;;;;;;;15.85;1.88;;;10.10;99.90;;;;;;5116089;27;20443;-72
2022/11/03 02:06:22;;;;;;;11.70;1.75;;;10.20;99.90;;;;;;5134380;27;20043;-71
2022/11/03 02:09:02;;;;;;;9.38;2.03;;;10.20;99.90;;;;;;5133617;27;20043;-73
2022/11/03 02:14:14;;;;;;;16.17;1.90;;;10.30;99.90;;;;;;5134938;27;20046;-71
2022/11/03 02:16:44;;;;;;;16.43;1.63;;;10.20;99.90;;;;;;5134187;27;20058;-72
2022/11/03 02:19:28;;;;;;;17.33;1.73;;;10.20;99.90;;;;;;5116523;27;20047;-72
2022/11/03 02:22:05;;;;;;;12.32;1.65;;;10.30;99.90;;;;;;5134451;27;20039;-72
2022/11/03 02:24:51;;;;;;;12.90;1.73;;;10.20;99.90;;;;;;5133990;27;20043;-71
2022/11/03 02:27:18;;;;;;;13.90;1.33;;;10.20;99.90;;;;;;5134152;27;20051;-71
2022/11/03 02:29:44;;;;;;;11.43;1.75;;;10.30;99.90;;;;;;5098589;27;20108;-71
2022/11/03 02:32:28;;;;;;;14.43;1.55;;;10.30;99.90;;;;;;5099110;27;20051;-72
2022/11/03 02:35:01;;;;;;;12.15;1.10;;;10.30;99.90;;;;;;5133948;27;20081;-71
2022/11/03 02:37:31;;;;;;;9.82;1.15;;;10.40;99.90;;;;;;5115711;27;20498;-76
2022/11/03 02:39:59;;;;;;;10.35;1.50;;;10.40;99.90;;;;;;5134223;27;20130;-72
2022/11/03 02:42:26;;;;;;;10.75;1.50;;;10.40;99.90;;;;;;5133827;27;20081;-74
2022/11/03 02:44:56;;;;;;;16.40;1.20;;;10.30;99.90;;;;;;5133810;27;20123;-71
2022/11/03 02:47:24;;;;;;;11.00;1.23;;;10.40;99.90;;;;;;5115379;27;20448;-70
2022/11/03 02:49:53;;;;;;;13.38;1.58;;;10.50;99.90;;;;;;5134064;27;20118;-72
2022/11/03 02:52:40;;;;;;;9.90;1.27;;;10.50;99.90;;;;;;5133869;27;20058;-71
2022/11/03 02:55:15;;;;;;;;;;;10.50;99.90;;;;;;5134729;27;20111;-72
2022/11/03 02:57:52;;;;;;;12.93;1.42;;;10.50;99.90;;;;;;5115843;28;19919;-71
2022/11/03 03:00:18;;;;;;;14.13;1.23;;;10.50;99.90;;;;;;5134157;27;20039;-71
2022/11/03 03:02:56;;;;;;;9.45;1.40;;;10.40;99.90;;;;;;5098007;28;20459;-72
2022/11/03 03:05:25;;;;;;;13.65;1.70;;;10.40;99.90;;;;;;5098576;28;20364;-71
2022/11/03 03:07:55;;;;;;;15.38;1.40;;;10.40;99.90;;;;;;5115050;28;20082;-70
2022/11/03 03:10:27;;;;;;;7.63;0.90;;;10.40;99.90;;;;;;5115147;28;20043;-72
2022/11/03 03:12:56;;;;;;;15.05;1.45;;;10.40;99.90;;;;;;5115263;28;20082;-72
2022/11/03 03:15:30;;;;;;;10.95;1.30;;;10.40;99.90;;;;;;5133392;28;20047;-72
2022/11/03 03:18:22;;;;;;;14.45;1.30;;;10.40;99.90;;;;;;5098465;28;20051;-72
2022/11/03 03:20:53;;;;;;;14.27;1.42;;;10.40;99.90;;;;;;5134615;27;20142;-72
2022/11/03 03:23:30;;;;;;;9.63;1.38;;;10.40;99.90;;;;;;5119169;27;20052;-71
2022/11/03 03:26:12;;;;;;;15.82;3.67;;;10.30;99.90;;;;;;5137709;27;20121;-72
2022/11/03 03:28:47;;;;;;;13.02;1.60;;;10.40;99.90;;;;;;5137575;27;20039;-71
2022/11/03 03:31:15;;;;;;;12.57;1.25;;;10.30;99.90;;;;;;5137649;27;20054;-70
2022/11/03 03:33:43;;;;;;;15.25;1.73;;;10.40;99.90;;;;;;5137319;27;20051;-70
2022/11/03 03:36:16;;;;;;;17.85;1.52;;;10.40;99.90;;;;;;5119852;27;20043;-71
2022/11/03 03:39:05;;;;;;;15.13;1.83;;;10.40;99.90;;;;;;5120307;27;20047;-72
2022/11/03 03:41:33;;;;;;;10.10;1.25;;;10.40;99.90;;;;;;5121460;27;20070;-74
2022/11/03 03:44:04;;;;;;;10.25;1.42;;;10.30;99.90;;;;;;5105045;27;20367;-71
2022/11/03 03:46:52;;;;;;;16.33;1.45;;;10.40;99.90;;;;;;5141759;27;20134;-69
2022/11/03 03:49:18;;;;;;;10.30;1.40;;;10.40;99.90;;;;;;5122886;27;20035;-73
2022/11/03 03:51:46;;;;;;;13.13;1.35;;;10.40;99.90;;;;;;5123110;27;20369;-71
2022/11/03 03:54:11;;;;;;;12.32;1.40;;;10.40;99.90;;;;;;5139669;27;20062;-71
2022/11/03 03:57:01;;;;;;;13.50;1.85;;;10.30;99.90;;;;;;5120432;27;20043;-71
2022/11/03 03:59:27;;;;;;;10.50;1.15;;;10.30;99.90;;;;;;5103105;27;20047;-71
2022/11/03 04:01:53;;;;;;;11.15;1.25;;;10.30;99.90;;;;;;5119160;27;20468;-71
2022/11/03 04:04:19;;;;;;;11.57;1.23;;;10.20;99.90;;;;;;5118352;27;20047;-71
2022/11/03 04:06:44;;;;;;;12.98;1.58;;;10.30;99.90;;;;;;5136515;27;20130;-71
2022/11/03 04:09:10;;;;;;;12.43;1.33;;;10.30;99.90;;;;;;5118138;27;20043;-73
2022/11/03 04:22:58;;;;;;;12.52;1.30;;;10.40;99.90;;;;;;5056208;28;20612;-72
2022/11/03 04:25:24;;;;;;;8.90;1.20;;;10.40;99.90;;;;;;5122885;27;20059;-71
2022/11/03 04:27:50;;;;;;;7.50;1.17;;;10.40;99.90;;;;;;5136440;27;20093;-73
2022/11/03 04:30:18;;;;;;;18.13;2.38;;;10.40;99.90;;;;;;5136135;27;20505;-73
2022/11/03 04:32:47;;;;;;;9.43;1.20;;;10.30;99.90;;;;;;5135089;27;20046;-73
2022/11/03 04:35:25;;;;;;;14.85;1.67;;;10.40;99.90;;;;;;5117831;27;20103;-71
2022/11/03 04:37:59;;;;;;;15.27;1.58;;;10.40;99.90;;;;;;5136744;27;20172;-73
2022/11/03 04:40:26;;;;;;;9.80;1.27;;;10.50;99.90;;;;;;5136200;27;20082;-72
2022/11/03 04:42:52;;;;;;;11.32;1.38;;;10.50;99.90;;;;;;5136006;27;20053;-71
2022/11/03 04:45:29;;;;;;;12.25;1.35;;;10.50;99.90;;;;;;5136056;27;20125;-71
2022/11/03 04:47:57;;;;;;;7.68;1.27;;;10.60;99.90;;;;;;5118007;27;20461;-71
2022/11/03 04:50:23;;;;;;;12.35;1.10;;;10.60;99.90;;;;;;5117570;27;20045;-71
2022/11/03 04:52:57;;;;;;;9.77;1.30;;;10.60;99.90;;;;;;5136145;27;20051;-72
2022/11/03 04:55:23;;;;;;;8.75;1.50;;;10.70;99.90;;;;;;5135832;27;20096;-70
2022/11/03 04:57:56;;;;;;;14.13;1.98;;;10.80;99.90;;;;;;5135704;27;20049;-72
2022/11/03 05:00:22;;;;;;;10.35;1.20;;;10.80;99.90;;;;;;5117779;27;20047;-72
2022/11/03 05:02:50;;;;;;;12.77;1.52;;;10.80;99.90;;;;;;5117843;27;20047;-71
2022/11/03 05:05:20;;;;;;;15.57;1.52;;;10.80;99.90;;;;;;5135453;27;20126;-71
2022/11/03 05:07:50;;;;;;;12.18;1.58;;;10.80;99.90;;;;;;5135389;27;20043;-71
2022/11/03 05:10:19;;;;;;;8.70;1.20;;;10.80;99.90;;;;;;5117160;27;20047;-70
2022/11/03 05:12:46;;;;;;;10.15;1.58;;;10.80;99.90;;;;;;5135793;27;20081;-71
2022/11/03 05:15:44;;;;;;;6.53;1.17;;;10.80;99.90;;;;;;5136634;27;20047;-71
2022/11/03 05:18:34;;;;;;;14.85;1.67;;;10.80;99.90;;;;;;5078631;27;20051;-73
2022/11/03 05:21:09;;;;;;;13.55;1.98;;;10.70;99.90;;;;;;5135598;27;20107;-71
2022/11/03 05:23:39;;;;;;;10.95;1.83;;;10.70;99.90;;;;;;5135651;27;20062;-71
2022/11/03 05:26:11;;;;;;;10.90;1.20;;;10.70;99.90;;;;;;5135758;27;20070;-70
2022/11/03 05:28:41;;;;;;;14.48;1.65;;;10.70;99.90;;;;;;5099680;27;20099;-72
2022/11/03 05:31:34;;;;;;;13.10;1.48;;;10.70;99.90;;;;;;5134983;27;20099;-72
2022/11/03 05:34:03;;;;;;;9.73;1.50;;;10.70;99.90;;;;;;5112899;27;20116;-71
2022/11/03 05:36:31;;;;;;;11.18;1.42;;;10.70;99.90;;;;;;5135139;27;20047;-71
2022/11/03 05:39:24;;;;;;;16.80;1.98;;;10.70;99.90;;;;;;5117190;27;20050;-71
2022/11/03 05:41:50;;;;;;;9.93;1.55;;;10.70;99.90;;;;;;5117168;27;20050;-71
2022/11/03 05:44:24;;;;;;;11.88;1.55;;;10.60;99.90;;;;;;5134556;27;20039;-70
2022/11/03 05:46:49;;;;;;;9.55;1.90;;;10.60;99.90;;;;;;5116900;27;20440;-71
2022/11/03 05:49:15;;;;;;;11.05;1.90;;;10.50;99.90;;;;;;5134401;27;20039;-72
2022/11/03 05:51:44;;;;;;;11.43;1.40;;;10.60;99.90;;;;;;5134680;27;20126;-71
2022/11/03 05:54:22;;;;;;;10.32;1.65;;;10.60;99.90;;;;;;5116476;27;20104;-70
2022/11/03 05:56:48;;;;;;;14.15;1.75;;;10.60;99.90;;;;;;5134550;27;20039;-76
2022/11/03 05:59:21;;;;;;;14.27;2.15;;;10.60;99.90;;;;;;5116950;27;20043;-70
2022/11/03 06:01:48;;;;;;;18.52;2.13;;;10.50;99.90;;;;;;5134642;27;20432;-75
2022/11/03 06:04:26;;;;;;;10.88;1.60;;;10.60;99.90;;;;;;5116032;27;20126;-70
2022/11/03 06:06:54;;;;;;;10.73;1.33;;;10.50;99.90;;;;;;5134098;27;20538;-72
2022/11/03 06:09:24;;;;;;;12.07;1.50;;;10.50;99.90;;;;;;5098616;27;20039;-72
2022/11/03 06:11:52;;;;;;;11.27;1.55;;;10.60;99.90;;;;;;5115944;27;20051;-75
2022/11/03 06:14:19;;;;;;;11.07;1.35;;;10.50;99.90;;;;;;5134262;27;20061;-71
2022/11/03 06:17:01;;;;;;;11.60;1.73;;;10.50;99.90;;;;;;5116438;27;20079;-72
2022/11/03 06:19:35;;;;;;;11.23;1.70;;;10.60;99.90;;;;;;5134259;27;20043;-71
2022/11/03 06:22:35;;;;;;;16.25;2.38;;;10.50;99.90;;;;;;5134869;27;20058;-73
2022/11/03 06:25:14;;;;;;;10.02;1.80;;;10.60;99.90;;;;;;5134112;27;20047;-72
2022/11/03 06:27:40;;;;;;;12.70;1.42;;;10.60;99.90;;;;;;5134334;27;20058;-72
2022/11/03 06:30:28;;;;;;;11.98;1.50;;;10.50;99.90;;;;;;5133906;27;20479;-71
2022/11/03 06:33:33;;;;;;;13.15;2.58;;;10.50;99.90;;;;;;5115418;27;20047;-75
2022/11/03 06:36:05;;;;;;;12.60;2.42;;;10.60;99.90;;;;;;5111273;27;20062;-70
2022/11/03 06:38:33;;;;;;;9.32;2.30;;;10.60;99.90;;;;;;5133927;27;20546;-76
2022/11/03 06:40:59;;;;;;;11.10;1.40;;;10.60;99.90;;;;;;5133359;27;20054;-72
2022/11/03 06:43:33;;;;;;;12.93;1.88;;;10.60;99.90;;;;;;5116165;27;20039;-72
2022/11/03 06:46:04;;;;;;;13.00;1.90;;;10.50;99.90;;;;;;5133622;27;20087;-72
2022/11/03 06:48:34;;;;;;;12.40;1.98;;;10.60;99.90;;;;;;5133827;27;20126;-72
2022/11/03 06:50:59;;;;;;;11.00;1.58;;;10.60;99.90;;;;;;5115398;27;20047;-71
2022/11/03 06:53:30;;;;;;;8.38;1.50;;;10.60;99.90;;;;;;5116055;27;20046;-74
2022/11/03 06:55:56;;;;;;;8.95;1.63;;;10.50;99.90;;;;;;5115610;28;20047;-73
2022/11/03 06:58:37;;;;;;;10.50;1.52;;;10.70;99.90;;;;;;5115667;28;20527;-74
2022/11/03 07:01:13;;;;;;;13.13;1.75;;;10.70;99.90;;;;;;5133588;27;20047;-72
2022/11/03 07:03:40;;;;;;;15.52;2.42;;;10.70;99.90;;;;;;5134025;28;20134;-72
2022/11/03 07:06:09;;;;;;;12.90;2.42;;;10.80;99.90;;;;;;5133572;28;20126;-72
2022/11/03 07:08:47;;;;;;;13.25;2.10;;;10.90;99.90;;;;;;5133314;28;20043;-72
2022/11/03 07:11:24;;;;;;;12.48;1.77;;;10.90;99.90;;;;;;5115177;28;20047;-72
2022/11/03 07:14:15;;;;;;;12.13;1.65;;;11.00;99.90;;;;;;5133593;28;20051;-73
2022/11/03 07:16:44;;;;;;;12.25;2.08;;;11.00;99.90;;;;;;5115533;28;20148;-75
2022/11/03 07:19:25;;;;;;;11.23;1.58;;;11.00;99.90;;;;;;5114748;28;20043;-75
2022/11/03 07:21:57;;;;;;;9.70;1.45;;;11.10;99.90;;;;;;5098196;28;20047;-72
2022/11/03 07:24:28;;;;;;;10.55;2.67;;;11.10;99.90;;;;;;5133746;28;20094;-71
2022/11/03 07:27:13;;;;;;;11.25;1.63;;;11.20;99.90;;;;;;5116026;28;20443;-70
2022/11/03 07:29:39;;;;;;;13.40;2.17;;;11.20;99.90;;;;;;5134002;28;20039;-72
2022/11/03 07:32:15;;;;;;;11.43;1.95;;;11.30;99.90;;;;;;5115479;28;20055;-71
2022/11/03 07:34:40;;;;;;;12.10;2.13;;;11.30;99.90;;;;;;5115121;28;20126;-72
2022/11/03 07:37:13;;;;;;;9.30;1.50;;;11.40;99.90;;;;;;5115378;28;20079;-76
2022/11/03 07:39:39;;;;;;;9.75;2.22;;;11.40;99.90;;;;;;5133658;28;20357;-73
2022/11/03 07:42:18;;;;;;;10.32;1.50;;;11.50;99.90;;;;;;5133460;28;20040;-72
2022/11/03 07:44:44;;;;;;;12.10;1.92;;;11.50;99.90;;;;;;5133628;28;20105;-72
2022/11/03 07:47:31;;;;;;;15.23;2.70;;;11.60;99.90;;;;;;5114904;28;20066;-73
2022/11/03 07:49:57;;;;;;;12.63;1.92;;;11.50;99.90;;;;;;5132550;28;20469;-74
2022/11/03 07:52:24;;;;;;;13.23;2.13;;;11.60;99.90;;;;;;5114599;28;20077;-75
2022/11/03 07:54:54;;;;;;;13.18;1.85;;;11.60;99.90;;;;;;5131657;28;20055;-73
2022/11/03 07:57:30;;;;;;;12.68;1.55;;;11.70;99.90;;;;;;5133151;28;20490;-72
2022/11/03 08:00:03;;;;;;;9.25;1.77;;;11.70;99.90;;;;;;5133609;28;20067;-72
2022/11/03 08:02:46;;;;;;;11.18;2.00;;;11.80;99.90;;;;;;5133508;28;20055;-72
2022/11/03 08:05:12;;;;;;;14.02;2.03;;;11.80;99.90;;;;;;5132848;28;20066;-72
2022/11/03 08:07:38;;;;;;;15.35;2.67;;;11.80;99.90;;;;;;5116375;27;20039;-71
2022/11/03 08:10:06;;;;;;;9.05;2.00;;;11.90;99.90;;;;;;5118456;27;20095;-75
2022/11/03 08:12:32;;;;;;;11.70;1.73;;;11.90;99.90;;;;;;5137144;27;20172;-72
2022/11/03 08:14:57;;;;;;;12.85;1.95;;;12.00;99.90;;;;;;5118568;27;20179;-72
2022/11/03 08:17:23;;;;;;;11.95;1.98;;;12.00;99.90;;;;;;5118204;27;20054;-75
2022/11/03 08:19:49;;;;;;;13.82;1.75;;;12.10;99.90;;;;;;5101340;27;20500;-71
2022/11/03 08:22:14;;;;;;;12.05;2.05;;;12.10;99.90;;;;;;5136503;27;20118;-71
2022/11/03 08:24:40;;;;;;;12.90;2.25;;;12.10;99.90;;;;;;5118100;27;20043;-75
2022/11/03 08:27:06;;;;;;;13.23;2.20;;;12.20;99.90;;;;;;5118133;27;20157;-71
2022/11/03 08:29:32;;;;;;;9.10;1.58;;;12.30;99.90;;;;;;5101602;27;20512;-75
2022/11/03 08:31:57;;;;;;;14.32;2.30;;;12.30;99.90;;;;;;5136496;27;20470;-76
2022/11/03 08:34:23;;;;;;;15.60;2.47;;;12.30;99.90;;;;;;5136107;27;20125;-70
2022/11/03 08:36:48;;;;;;;11.07;2.47;;;12.40;99.90;;;;;;5136331;27;20477;-72
2022/11/03 08:39:14;;;;;;;11.23;2.05;;;12.40;99.90;;;;;;5134777;27;20039;-70
2022/11/03 08:41:40;;;;;;;11.32;2.15;;;12.50;99.90;;;;;;5136526;27;20039;-73
2022/11/03 08:44:06;;;;;;;12.68;2.40;;;12.60;99.90;;;;;;5117685;27;20444;-74
2022/11/03 08:46:31;;;;;;;15.52;2.85;;;12.60;99.90;;;;;;5118436;27;20419;-71
2022/11/03 08:48:57;;;;;;;14.57;2.00;;;12.70;99.90;;;;;;5117675;27;20039;-73
2022/11/03 08:51:23;;;;;;;15.75;2.15;;;12.70;99.90;;;;;;5136008;27;20130;-73
2022/11/03 08:53:53;;;;;;;11.32;2.25;;;12.70;99.90;;;;;;5100583;27;20076;-74
2022/11/03 08:56:19;;;;;;;15.00;2.53;;;12.80;99.90;;;;;;5135950;27;20504;-73
2022/11/03 08:58:46;;;;;;;15.07;1.75;;;12.80;99.90;;;;;;5084214;27;20047;-71
2022/11/03 09:01:12;;;;;;;14.82;1.70;;;12.80;99.90;;;;;;5100881;27;20100;-75
2022/11/03 09:03:38;;;;;;;12.50;1.80;;;12.90;99.90;;;;;;5135710;27;20054;-74
2022/11/03 09:06:04;;;;;;;8.52;2.20;;;12.90;99.90;;;;;;5117700;27;20054;-73
2022/11/03 09:08:30;;;;;;;16.63;2.40;;;13.00;99.90;;;;;;5135198;27;20504;-73
2022/11/03 09:10:56;;;;;;;15.25;2.85;;;13.10;99.90;;;;;;5135694;27;20122;-73
2022/11/03 09:13:22;;;;;;;11.85;2.05;;;13.10;99.90;;;;;;5117177;27;20065;-72
2022/11/03 09:15:47;;;;;;;13.68;2.15;;;13.20;99.90;;;;;;5135616;27;20513;-71
2022/11/03 09:18:14;;;;;;;13.90;2.25;;;13.30;99.90;;;;;;5100284;27;20049;-73
2022/11/03 09:20:40;;;;;;;9.50;2.05;;;13.40;99.90;;;;;;5117439;27;20119;-71
2022/11/03 09:23:06;;;;;;;10.77;1.80;;;13.50;99.90;;;;;;5117292;27;20047;-72
2022/11/03 09:25:32;;;;;;;16.80;1.95;;;13.60;99.90;;;;;;5135466;27;20043;-72
2022/11/03 09:27:57;;;;;;;10.23;1.67;;;13.60;99.90;;;;;;5100266;27;20047;-72
2022/11/03 09:30:23;;;;;;;15.05;2.17;;;13.70;99.90;;;;;;5118170;27;20113;-71
2022/11/03 09:32:49;;;;;;;13.15;2.10;;;13.80;99.90;;;;;;5101447;27;20143;-72
2022/11/03 09:35:15;;;;;;;13.20;1.92;;;13.90;99.90;;;;;;5119373;27;20399;-72
2022/11/03 09:37:42;;;;;;;17.02;2.10;;;14.00;99.90;;;;;;5138300;27;20054;-71
2022/11/03 09:40:10;;;;;;;14.73;1.83;;;14.10;99.90;;;;;;5140118;27;20488;-72
2022/11/03 09:42:36;;;;;;;12.38;2.10;;;14.20;99.90;;;;;;5138601;27;20802;-72
2022/11/03 09:45:03;;;;;;;13.98;1.75;;;14.30;99.90;;;;;;5138163;27;20080;-74
2022/11/03 09:47:34;;;;;;;14.63;1.63;;;14.30;99.90;;;;;;5136846;27;20133;-74
2022/11/03 09:50:01;;;;;;;12.95;2.30;;;14.40;99.90;;;;;;5117612;27;20051;-72
2022/11/03 09:52:26;;;;;;;12.57;1.83;;;14.40;99.90;;;;;;5134937;27;20118;-74
2022/11/03 09:54:58;;;;;;;10.50;1.90;;;14.30;99.90;;;;;;5116185;27;20137;-74
2022/11/03 09:57:26;;;;;;;8.68;1.60;;;14.40;99.90;;;;;;5134563;27;20517;-72
2022/11/03 09:59:53;;;;;;;11.45;1.35;;;14.50;99.90;;;;;;5100232;27;20093;-71
2022/11/03 10:02:24;;;;;;;10.85;2.15;;;14.50;99.90;;;;;;5116463;27;20138;-73
2022/11/03 10:04:51;;;;;;;11.05;1.83;;;14.60;99.90;;;;;;5135045;27;20051;-71
2022/11/03 10:07:17;;;;;;;9.38;1.40;;;14.70;99.90;;;;;;5082122;27;20080;-72
2022/11/03 10:09:46;;;;;;;9.13;1.63;;;14.80;99.90;;;;;;5082009;27;20118;-71
2022/11/03 10:12:12;;;;;;;15.15;1.92;;;14.90;99.90;;;;;;5134283;27;20046;-72
2022/11/03 10:14:39;;;;;;;11.85;1.70;;;14.90;99.90;;;;;;5099267;27;20039;-72
2022/11/03 10:17:05;;;;;;;12.93;2.33;;;14.80;99.90;;;;;;5116036;27;20047;-72
2022/11/03 10:19:31;;;;;;;11.63;2.10;;;14.90;99.90;;;;;;5098842;27;20035;-73
2022/11/03 10:21:57;;;;;;;13.00;1.83;;;14.80;99.90;;;;;;5133891;27;20078;-73
2022/11/03 10:24:24;;;;;;;14.45;1.65;;;14.80;99.90;;;;;;5116046;27;20127;-75
2022/11/03 10:26:53;;;;;;;10.50;1.63;;;14.80;99.90;;;;;;5115912;27;20130;-72
2022/11/03 10:29:21;;;;;;;7.75;1.35;;;14.80;99.90;;;;;;5134112;27;20047;-73
2022/11/03 10:31:50;;;;;;;7.75;1.25;;;14.90;99.90;;;;;;5115357;27;20051;-71
2022/11/03 10:34:26;;;;;;;6.18;1.00;;;14.90;99.90;;;;;;5099121;27;20055;-72
2022/11/03 10:37:11;;;;;;;10.25;1.23;;;15.00;99.90;;;;;;5116179;27;20383;-71
2022/11/03 10:39:37;;;;;;;8.45;1.13;;;15.00;99.90;;;;;;5115707;27;20058;-73
2022/11/03 10:42:03;;;;;;;6.57;1.30;;;15.00;99.90;;;;;;5132660;27;20134;-72
2022/11/03 10:44:29;;;;;;;9.88;1.60;;;15.00;99.90;;;;;;5115617;27;20047;-74
2022/11/03 10:47:00;;;;;;;9.05;1.40;;;15.00;99.90;;;;;;5133412;27;20078;-72
2022/11/03 10:49:34;;;;;;;11.38;1.40;;;15.20;99.90;;;;;;5134038;27;20047;-72
2022/11/03 10:52:36;;;;;;;8.07;1.27;;;15.30;99.90;;;;;;5134448;27;20047;-73
2022/11/03 10:55:03;;;;;;;13.38;1.50;;;15.40;99.90;;;;;;5030741;28;20525;-73
2022/11/03 10:57:29;;;;;;;9.23;1.58;;;15.50;99.90;;;;;;5095585;28;20491;-72
2022/11/03 10:59:55;;;;;;;10.23;1.67;;;15.60;99.90;;;;;;5115430;28;20043;-75
2022/11/03 11:02:22;;;;;;;8.90;1.27;;;15.60;99.90;;;;;;5132547;27;20043;-72
2022/11/03 11:04:55;;;;;;;9.85;1.33;;;15.60;99.90;;;;;;5098388;28;20074;-73
2022/11/03 11:07:25;;;;;;;7.15;1.20;;;15.70;99.90;;;;;;5133785;28;20126;-72
2022/11/03 11:09:52;;;;;;;11.85;1.60;;;15.70;99.90;;;;;;5134028;28;20186;-71
2022/11/03 11:12:24;;;;;;;10.05;1.40;;;15.50;99.90;;;;;;5134177;28;20050;-72
2022/11/03 11:14:52;;;;;;;11.05;1.10;;;15.60;99.90;;;;;;5133613;28;20047;-73
2022/11/03 11:17:36;;;;;;;14.70;1.85;;;15.50;99.90;;;;;;5115078;28;20050;-72
2022/11/03 11:20:17;;;;;;;12.55;1.77;;;15.40;99.90;;;;;;5133353;28;20050;-70
2022/11/03 11:22:44;;;;;;;6.72;1.08;;;15.40;99.90;;;;;;5115296;28;20047;-72
2022/11/03 11:25:10;;;;;;;8.80;1.25;;;15.40;99.90;;;;;;5134008;28;20078;-71
2022/11/03 11:27:35;;;;;;;16.48;1.70;;;15.50;99.90;;;;;;5133161;28;20063;-72
2022/11/03 11:30:23;;;;;;;9.70;1.45;;;15.50;99.90;;;;;;5132872;28;20043;-72
2022/11/03 11:32:57;;;;;;;8.85;1.10;;;15.50;99.90;;;;;;5132596;28;20121;-72
2022/11/03 11:35:23;;;;;;;11.10;1.30;;;15.50;99.90;;;;;;5133206;28;20051;-73
2022/11/03 11:37:49;;;;;;;11.38;1.40;;;15.50;99.90;;;;;;5115089;28;20054;-73
2022/11/03 11:40:24;;;;;;;10.00;1.70;;;15.60;99.90;;;;;;5132928;28;20039;-72
2022/11/03 11:43:02;;;;;;;6.45;1.30;;;15.50;99.90;;;;;;5135835;27;20035;-72
2022/11/03 11:46:06;;;;;;;10.05;1.48;;;15.60;99.90;;;;;;5137341;27;20479;-74
2022/11/03 11:48:33;;;;;;;12.85;1.20;;;15.60;99.90;;;;;;5119399;27;20131;-74
2022/11/03 11:51:00;;;;;;;8.25;1.13;;;15.60;99.90;;;;;;5102113;27;20081;-71
2022/11/03 11:53:26;;;;;;;10.95;1.40;;;;;;;;;;5138053;27;20129;-72
2022/11/03 11:55:57;;;;;;;6.63;1.15;;;15.60;99.90;;;;;;5119849;27;20047;-72
2022/11/03 11:58:36;;;;;;;9.45;1.40;;;15.50;99.90;;;;;;5119375;27;20087;-72
2022/11/03 12:01:05;;;;;;;12.25;1.33;;;15.50;99.90;;;;;;5119166;27;20099;-74
2022/11/03 12:03:42;;;;;;;7.97;1.30;;;15.50;99.90;;;;;;5136735;27;20136;-76
2022/11/03 12:06:14;;;;;;;10.55;1.50;;;15.50;99.90;;;;;;5119912;27;20409;-72
2022/11/03 12:08:40;;;;;;;5.45;1.17;;;15.50;99.90;;;;;;5118159;27;20043;-72
2022/11/03 12:11:08;;;;;;;6.80;0.88;;;15.50;99.90;;;;;;5118665;27;20050;-72
2022/11/03 12:13:46;;;;;;;11.27;1.45;;;15.60;99.90;;;;;;5137370;27;20087;-77
2022/11/03 12:16:36;;;;;;;13.55;1.45;;;15.60;99.90;;;;;;5118580;27;20447;-72
2022/11/03 12:19:33;;;;;;;10.02;1.40;;;15.50;99.90;;;;;;5124098;27;20051;-71
2022/11/03 12:22:00;;;;;;;4.97;1.13;;;15.50;99.90;;;;;;5118578;27;20054;-70
2022/11/03 12:24:29;;;;;;;13.52;1.55;;;15.50;99.90;;;;;;5118685;27;20049;-74
2022/11/03 12:26:55;;;;;;;7.20;1.38;;;15.50;99.90;;;;;;5118741;27;20067;-72
2022/11/03 12:29:21;;;;;;;11.07;1.30;;;15.50;99.90;;;;;;5136605;27;20365;-73
2022/11/03 12:31:48;;;;;;;11.93;1.40;;;15.60;99.90;;;;;;5136244;27;20199;-75
2022/11/03 12:34:15;;;;;;;7.75;1.40;;;15.60;99.90;;;;;;5136343;27;20050;-73
2022/11/03 12:36:44;;;;;;;;;;;15.60;99.90;;;;;;5136693;27;20496;-73
2022/11/03 12:39:10;;;;;;;7.63;1.50;;;15.70;99.90;;;;;;5136291;27;20020;-72
2022/11/03 12:41:35;;;;;;;6.90;0.93;;;15.80;99.90;;;;;;5136803;27;20047;-76
2022/11/03 12:44:02;;;;;;;7.28;1.00;;;15.80;99.90;;;;;;5136225;27;20118;-73
2022/11/03 12:46:27;;;;;;;6.03;0.80;;;15.90;99.90;;;;;;5118037;27;20043;-74
2022/11/03 12:48:53;;;;;;;7.35;1.20;;;15.90;99.90;;;;;;5135616;27;20049;-72
2022/11/03 12:51:21;;;;;;;6.88;1.15;;;15.90;99.90;;;;;;5117907;27;20055;-73
2022/11/03 12:53:47;;;;;;;8.38;0.80;;;15.90;99.90;;;;;;5117496;27;20379;-74
2022/11/03 12:56:14;;;;;;;6.78;1.08;;;15.90;99.90;;;;;;5135597;27;20115;-74
2022/11/03 12:58:40;;;;;;;7.03;1.13;;;15.90;99.90;;;;;;5116921;27;20543;-77
2022/11/03 13:01:06;;;;;;;6.40;1.10;;;15.90;99.90;;;;;;5136360;27;20051;-74
2022/11/03 13:03:33;;;;;;;6.30;1.20;;;15.80;99.90;;;;;;5117599;27;20047;-73
2022/11/03 13:06:00;;;;;;;7.13;1.10;;;15.90;99.90;;;;;;5117462;27;20054;-72
2022/11/03 13:08:26;;;;;;;;;;;15.80;99.90;;;;;;5084754;27;20046;-74
2022/11/03 13:10:52;;;;;;;8.77;0.87;;;15.90;99.90;;;;;;5135756;27;19964;-72
2022/11/03 13:13:20;;;;;;;5.23;0.80;;;15.90;99.90;;;;;;5117448;27;20043;-73
2022/11/03 13:15:46;;;;;;;6.70;0.98;;;15.80;99.90;;;;;;5100390;27;20086;-73